createdAt,value
2022-10-11T00:01:42.834Z,88.40
2022-10-11T00:04:14.160Z,89.67
2022-10-11T00:06:43.953Z,91.19
2022-10-11T00:09:16.308Z,90.74
2022-10-11T00:11:45.846Z,89.62
2022-10-11T00:14:15.540Z,91.67
2022-10-11T00:16:45.543Z,90.72
2022-10-11T00:19:15.007Z,90.60
2022-10-11T00:21:44.308Z,91.25
2022-10-11T00:24:16.163Z,87.85
2022-10-11T00:26:47.118Z,87.36
2022-10-11T00:29:16.493Z,93.94
2022-10-11T00:31:48.391Z,91.40
2022-10-11T00:34:18.404Z,95.77
2022-10-11T00:36:48.548Z,89.49
2022-10-11T00:39:21.203Z,88.80
2022-10-11T00:41:51.398Z,88.27
2022-10-11T00:44:26.111Z,87.98
2022-10-11T00:46:58.522Z,89.40
2022-10-11T00:49:35.130Z,88.52
2022-10-11T00:52:06.012Z,88.91
2022-10-11T00:54:38.580Z,91.33
2022-10-11T00:57:09.880Z,88.62
2022-10-11T00:59:41.679Z,91.76
2022-10-11T01:02:11.707Z,89.92
2022-10-11T01:04:41.930Z,91.81
2022-10-11T01:07:11.865Z,88.04
2022-10-11T01:09:42.572Z,88.80
2022-10-11T01:12:17.704Z,88.89
2022-10-11T01:15:05.605Z,91.22
2022-10-11T01:17:41.278Z,94.58
2022-10-11T01:20:41.821Z,88.49
2022-10-11T01:23:42.628Z,90.55
2022-10-11T01:26:50.987Z,88.13
2022-10-11T01:29:30.402Z,90.40
2022-10-11T01:32:09.927Z,91.66
2022-10-11T01:34:45.386Z,92.75
2022-10-11T01:37:16.586Z,89.41
2022-10-11T01:39:49.236Z,91.49
2022-10-11T01:42:19.661Z,88.54
2022-10-11T01:44:50.346Z,91.49
2022-10-11T01:47:23.314Z,90.42
2022-10-11T01:49:59.134Z,91.30
2022-10-11T01:52:31.407Z,90.28
2022-10-11T01:55:14.595Z,91.38
2022-10-11T01:57:52.719Z,91.04
2022-10-11T02:00:23.883Z,90.78
2022-10-11T02:03:13.863Z,89.48
2022-10-11T02:05:48.386Z,87.42
2022-10-11T02:08:20.690Z,87.62
2022-10-11T02:10:55.131Z,88.75
2022-10-11T02:13:27.457Z,86.13
2022-10-11T02:15:59.938Z,89.38
2022-10-11T02:18:34.222Z,89.48
2022-10-11T02:21:06.749Z,88.95
2022-10-11T02:23:40.939Z,88.58
2022-10-11T02:26:11.151Z,90.00
2022-10-11T02:28:42.796Z,91.40
2022-10-11T02:31:13.504Z,91.29
2022-10-11T02:33:48.367Z,89.26
2022-10-11T02:36:22.009Z,92.35
2022-10-11T02:38:54.586Z,98.13
2022-10-11T02:41:26.882Z,100.00
2022-10-11T02:44:00.808Z,99.75
2022-10-11T02:46:31.493Z,100.00
2022-10-11T02:49:03.209Z,100.00
2022-10-11T02:51:33.238Z,100.00
2022-10-11T02:54:02.558Z,97.75
2022-10-11T02:56:31.704Z,97.50
2022-10-11T02:59:00.947Z,100.00
2022-10-11T03:01:30.161Z,100.00
2022-10-11T03:03:59.225Z,100.00
2022-10-11T03:06:34.065Z,100.00
2022-10-11T03:09:03.221Z,97.26
2022-10-11T03:11:33.448Z,100.00
2022-10-11T03:14:03.406Z,97.33
2022-10-11T03:16:32.496Z,94.87
2022-10-11T03:19:01.693Z,93.58
2022-10-11T03:21:32.629Z,95.57
2022-10-11T03:24:01.958Z,90.85
2022-10-11T03:26:31.288Z,91.45
2022-10-11T03:29:00.491Z,92.03
2022-10-11T03:31:29.690Z,94.60
2022-10-11T03:33:59.107Z,91.99
2022-10-11T03:36:28.172Z,93.62
2022-10-11T03:38:59.135Z,94.10
2022-10-11T03:41:28.225Z,91.33
2022-10-11T03:43:57.723Z,94.73
2022-10-11T03:46:26.953Z,92.61
2022-10-11T03:48:56.005Z,92.57
2022-10-11T03:51:25.330Z,90.13
2022-10-11T03:53:54.684Z,89.20
2022-10-11T03:56:25.208Z,90.00
2022-10-11T03:58:54.433Z,94.43
2022-10-11T04:01:23.542Z,94.23
2022-10-11T04:03:52.487Z,90.48
2022-10-11T04:06:21.449Z,95.19
2022-10-11T04:08:52.762Z,93.18
2022-10-11T04:11:23.345Z,95.19
2022-10-11T04:13:54.987Z,98.75
2022-10-11T04:16:24.254Z,93.21
2022-10-11T04:18:53.228Z,95.19
2022-10-11T04:21:22.338Z,94.06
2022-10-11T04:23:53.104Z,96.25
2022-10-11T04:26:24.293Z,93.26
2022-10-11T04:28:56.040Z,92.60
2022-10-11T04:31:25.269Z,92.57
2022-10-11T04:33:54.427Z,94.93
2022-10-11T04:36:23.623Z,94.33
2022-10-11T04:38:52.794Z,98.01
2022-10-11T04:41:22.215Z,95.09
2022-10-11T04:43:51.386Z,95.96
2022-10-11T04:46:21.878Z,93.39
2022-10-11T05:12:06.512Z,96.17
2022-10-11T05:14:35.687Z,93.30
2022-10-11T05:17:05.098Z,95.65
2022-10-11T05:19:34.689Z,96.45
2022-10-11T05:22:03.923Z,94.48
2022-10-11T05:24:33.272Z,94.42
2022-10-11T05:27:03.506Z,92.62
2022-10-11T05:29:34.064Z,93.92
2022-10-11T05:32:03.364Z,95.48
2022-10-11T05:34:32.524Z,96.72
2022-10-11T05:37:01.708Z,93.38
2022-10-11T05:39:31.977Z,95.17
2022-10-11T05:42:01.170Z,94.20
2022-10-11T05:44:30.292Z,95.48
2022-10-11T05:47:00.863Z,95.22
2022-10-11T05:49:30.071Z,93.90
2022-10-11T05:51:59.494Z,93.09
2022-10-11T05:54:32.467Z,94.17
2022-10-11T05:57:02.211Z,92.64
2022-10-11T05:59:31.899Z,96.07
2022-10-11T06:02:02.515Z,94.20
2022-10-11T06:04:31.633Z,96.70
2022-10-11T06:07:00.873Z,92.94
2022-10-11T06:09:30.027Z,94.46
2022-10-11T06:12:00.451Z,95.79
2022-10-11T06:14:29.855Z,95.70
2022-10-11T06:16:59.021Z,95.58
2022-10-11T06:19:29.981Z,96.46
2022-10-11T06:21:59.080Z,95.08
2022-10-11T06:24:28.426Z,99.68
2022-10-11T06:26:57.571Z,94.06
2022-10-11T06:29:26.781Z,97.39
2022-10-11T06:31:56.206Z,96.21
2022-10-11T06:34:25.543Z,94.22
2022-10-11T06:36:56.388Z,95.78
2022-10-11T06:39:25.969Z,96.83
2022-10-11T06:41:55.253Z,97.14
2022-10-11T06:44:24.883Z,96.75
2022-10-11T06:46:54.146Z,96.07
2022-10-11T06:49:23.733Z,96.96
2022-10-11T06:51:52.890Z,94.71
2022-10-11T06:54:23.468Z,97.50
2022-10-11T06:56:52.697Z,100.00
2022-10-11T06:59:22.134Z,95.22
2022-10-11T07:01:51.366Z,95.02
2022-10-11T07:04:20.418Z,96.50
2022-10-11T07:06:49.552Z,93.73
2022-10-11T07:09:18.794Z,96.21
2022-10-11T07:11:49.478Z,99.90
2022-10-11T07:14:19.005Z,96.02
2022-10-11T07:16:48.069Z,94.92
2022-10-11T07:19:17.274Z,96.97
2022-10-11T07:21:46.465Z,98.13
2022-10-11T07:24:15.699Z,97.08
2022-10-11T07:26:44.998Z,100.00
2022-10-11T07:29:15.905Z,97.77
2022-10-11T07:31:45.274Z,97.98
2022-10-11T07:34:17.545Z,96.62
2022-10-11T07:36:46.911Z,97.43
2022-10-11T07:39:16.621Z,98.13
2022-10-11T07:41:46.212Z,96.63
2022-10-11T07:44:16.977Z,98.84
2022-10-11T07:46:46.271Z,96.95
2022-10-11T07:49:15.394Z,97.66
2022-10-11T07:51:44.530Z,95.85
2022-10-11T07:54:13.712Z,94.99
2022-10-11T07:56:42.567Z,96.62
2022-10-11T07:59:13.184Z,93.44
2022-10-11T08:01:43.984Z,93.94
2022-10-11T08:04:13.272Z,94.33
2022-10-11T08:06:42.597Z,95.39
2022-10-11T08:09:12.829Z,95.24
2022-10-11T08:11:42.166Z,93.13
2022-10-11T08:14:11.471Z,92.08
2022-10-11T08:16:42.563Z,93.46
2022-10-11T08:19:12.314Z,92.53
2022-10-11T08:21:41.666Z,93.56
2022-10-11T08:24:13.928Z,93.49
2022-10-11T08:26:43.584Z,91.05
2022-10-11T08:29:14.486Z,92.35
2022-10-11T08:31:45.933Z,89.13
2022-10-11T08:34:15.450Z,92.64
2022-10-11T08:36:45.132Z,94.72
2022-10-11T08:39:14.467Z,95.50
2022-10-11T08:41:47.284Z,93.58
2022-10-11T08:45:05.404Z,94.00
2022-10-11T08:47:32.178Z,92.67
2022-10-11T08:50:02.060Z,91.86
2022-10-11T08:52:42.042Z,92.17
2022-10-11T08:55:19.977Z,92.04
2022-10-11T08:57:54.559Z,93.28
2022-10-11T09:00:24.618Z,91.99
2022-10-11T09:03:08.624Z,92.94
2022-10-11T09:05:45.160Z,92.20
2022-10-11T09:08:22.888Z,92.85
2022-10-11T09:11:01.394Z,89.34
2022-10-11T09:13:52.645Z,91.13
2022-10-11T09:16:28.687Z,90.00
2022-10-11T09:19:14.533Z,89.02
2022-10-11T09:21:48.832Z,91.29
2022-10-11T09:24:45.740Z,91.03
2022-10-11T09:27:33.030Z,91.27
2022-10-11T09:30:14.555Z,89.19
2022-10-11T09:32:45.912Z,90.63
2022-10-11T09:35:18.693Z,87.91
2022-10-11T09:37:53.915Z,88.60
2022-10-11T09:40:40.507Z,88.33
2022-10-11T09:43:14.306Z,86.93
2022-10-11T09:45:49.222Z,86.11
2022-10-11T09:48:23.328Z,80.58
2022-10-11T09:50:55.591Z,81.49
2022-10-11T09:53:51.257Z,82.35
2022-10-11T09:56:20.708Z,77.65
2022-10-11T09:58:50.307Z,75.78
2022-10-11T10:01:28.276Z,72.24
2022-10-11T10:04:08.056Z,67.83
2022-10-11T10:06:39.456Z,67.80
2022-10-11T10:09:30.229Z,67.40
2022-10-11T10:12:00.256Z,69.07
2022-10-11T10:14:30.720Z,69.75
2022-10-11T10:17:03.155Z,67.93
2022-10-11T10:19:41.107Z,68.98
2022-10-11T10:22:20.963Z,65.54
2022-10-11T10:24:51.677Z,61.90
2022-10-11T10:27:23.459Z,64.98
2022-10-11T10:30:14.351Z,65.16
2022-10-11T10:32:49.173Z,64.14
2022-10-11T10:35:31.899Z,63.64
2022-10-11T10:38:13.607Z,60.44
2022-10-11T10:40:45.521Z,60.05
2022-10-11T10:43:19.163Z,60.47
2022-10-11T10:46:21.482Z,59.01
2022-10-11T10:51:53.482Z,59.86
2022-10-11T10:54:36.353Z,57.34
2022-10-11T10:57:11.525Z,57.20
2022-10-11T10:59:56.665Z,57.33
2022-10-11T11:02:47.180Z,56.54
2022-10-11T11:05:25.095Z,57.53
2022-10-11T11:07:59.282Z,56.96
2022-10-11T11:10:35.731Z,52.13
2022-10-11T11:13:17.061Z,55.51
2022-10-11T11:15:51.646Z,55.49
2022-10-11T11:18:29.943Z,54.87
2022-10-11T11:21:16.495Z,59.13
2022-10-11T11:23:54.025Z,53.10
2022-10-11T11:26:30.122Z,53.84
2022-10-11T11:29:17.009Z,51.96
2022-10-11T11:31:56.094Z,51.40
2022-10-11T11:34:27.340Z,50.96
2022-10-11T11:36:58.680Z,49.67
2022-10-11T11:39:31.054Z,51.54
2022-10-11T11:42:06.244Z,49.17
2022-10-11T11:44:39.317Z,48.53
2022-10-11T11:47:12.202Z,45.84
2022-10-11T11:52:18.256Z,48.78
2022-10-11T11:54:52.261Z,46.44
2022-10-11T11:57:32.960Z,49.44
2022-10-11T12:00:08.337Z,47.33
2022-10-11T12:02:46.067Z,47.85
2022-10-11T12:05:18.716Z,47.53
2022-10-11T12:07:55.092Z,49.06
2022-10-11T12:10:31.729Z,47.98
2022-10-11T12:13:32.116Z,46.89
2022-10-11T12:16:11.058Z,46.68
2022-10-11T12:18:53.689Z,47.26
2022-10-11T12:21:31.501Z,46.85
2022-10-11T12:24:01.551Z,44.42
2022-10-11T12:26:42.970Z,43.84
2022-10-11T12:29:55.373Z,43.51
2022-10-11T12:32:52.679Z,43.13
2022-10-11T12:36:04.074Z,46.37
2022-10-11T12:38:39.786Z,46.53
2022-10-11T12:41:53.763Z,45.68
2022-10-11T12:44:26.363Z,44.89
2022-10-11T12:47:21.395Z,44.42
2022-10-11T12:50:05.132Z,46.22
2022-10-11T12:52:40.549Z,42.31
2022-10-11T12:55:28.002Z,43.78
2022-10-11T12:58:23.344Z,44.17
2022-10-11T13:01:29.442Z,43.60
2022-10-11T13:04:06.850Z,44.94
2022-10-11T13:06:40.795Z,44.25
2022-10-11T13:09:18.955Z,43.85
2022-10-11T13:11:52.119Z,44.04
2022-10-11T13:14:22.995Z,45.97
2022-10-11T13:17:00.401Z,46.94
2022-10-11T13:19:31.899Z,44.45
2022-10-11T13:22:03.677Z,45.83
2022-10-11T13:24:39.195Z,46.02
2022-10-11T13:27:09.475Z,46.85
2022-10-11T13:29:40.577Z,45.54
2022-10-11T13:32:14.219Z,46.34
2022-10-11T13:34:48.205Z,47.50
2022-10-11T13:37:19.092Z,48.40
2022-10-11T13:39:49.588Z,48.23
2022-10-11T13:42:19.817Z,47.27
2022-10-11T13:44:49.609Z,45.71
2022-10-11T13:47:24.375Z,50.20
2022-10-11T13:50:09.341Z,49.03
2022-10-11T13:52:55.319Z,48.16
2022-10-11T13:55:26.938Z,49.77
2022-10-11T13:57:56.918Z,50.93
2022-10-11T14:00:30.146Z,49.49
2022-10-11T14:03:02.306Z,49.59
2022-10-11T14:05:36.346Z,49.14
2022-10-11T14:08:08.114Z,49.44
2022-10-11T14:10:37.520Z,50.19
2022-10-11T14:13:18.999Z,51.09
2022-10-11T14:15:48.196Z,50.92
2022-10-11T14:18:43.641Z,51.47
2022-10-11T14:21:34.630Z,51.64
2022-10-11T14:24:06.216Z,52.59
2022-10-11T14:26:37.414Z,52.06
2022-10-11T14:29:09.957Z,53.51
2022-10-11T14:31:42.021Z,52.09
2022-10-11T14:34:17.850Z,52.48
2022-10-11T14:36:49.186Z,53.03
2022-10-11T14:39:20.532Z,53.06
2022-10-11T14:41:49.887Z,52.72
2022-10-11T14:44:20.762Z,54.37
2022-10-11T14:46:52.468Z,53.82
2022-10-11T14:49:26.305Z,55.83
2022-10-11T14:51:59.161Z,54.95
2022-10-11T14:54:29.898Z,54.33
2022-10-11T14:57:00.869Z,54.63
2022-10-11T14:59:34.247Z,54.94
2022-10-11T15:02:03.969Z,54.55
2022-10-11T15:04:33.354Z,56.15
2022-10-11T15:07:04.667Z,56.62
2022-10-11T15:09:34.196Z,57.56
2022-10-11T15:12:05.121Z,57.30
2022-10-11T15:14:34.552Z,57.95
2022-10-11T15:17:03.766Z,56.90
2022-10-11T15:19:33.312Z,59.03
2022-10-11T15:22:06.043Z,58.13
2022-10-11T15:24:36.164Z,59.18
2022-10-11T15:27:05.422Z,58.32
2022-10-11T15:29:45.902Z,59.18
2022-10-11T15:32:15.155Z,59.55
2022-10-11T15:34:44.334Z,60.89
2022-10-11T15:37:15.044Z,59.88
2022-10-11T15:39:44.670Z,61.00
2022-10-11T15:42:13.884Z,60.16
2022-10-11T15:44:43.159Z,61.77
2022-10-11T15:47:13.118Z,62.71
2022-10-11T15:49:42.346Z,62.59
2022-10-11T15:52:13.101Z,63.04
2022-10-11T15:54:43.456Z,64.30
2022-10-11T15:57:12.798Z,65.80
2022-10-11T15:59:42.216Z,66.91
2022-10-11T16:02:15.730Z,67.46
2022-10-11T16:04:45.125Z,68.43
2022-10-11T16:07:15.796Z,69.39
2022-10-11T16:09:45.043Z,70.65
2022-10-11T16:12:14.535Z,71.58
2022-10-11T16:14:47.047Z,71.80
2022-10-11T16:17:16.961Z,72.86
2022-10-11T16:19:46.232Z,73.00
2022-10-11T16:22:16.524Z,73.29
2022-10-11T16:24:45.752Z,74.75
2022-10-11T16:27:18.665Z,75.59
2022-10-11T16:29:48.346Z,75.99
2022-10-11T16:32:20.790Z,76.50
2022-10-11T16:34:50.273Z,77.00
2022-10-11T16:37:21.143Z,77.20
2022-10-11T16:39:53.587Z,78.05
2022-10-11T16:42:23.324Z,78.32
2022-10-11T16:44:52.686Z,78.69
2022-10-11T16:47:22.159Z,78.99
2022-10-11T16:49:53.206Z,78.84
2022-10-11T16:52:23.958Z,79.85
2022-10-11T16:54:53.496Z,80.39
2022-10-11T16:57:22.929Z,80.51
2022-10-11T16:59:52.179Z,80.91
2022-10-11T17:02:23.013Z,81.07
2022-10-11T17:04:54.009Z,81.54
2022-10-11T17:07:25.062Z,81.98
2022-10-11T17:09:54.352Z,83.48
2022-10-11T17:12:25.044Z,82.22
2022-10-11T17:14:54.630Z,81.54
2022-10-11T17:17:24.649Z,82.50
2022-10-11T17:19:53.915Z,82.38
2022-10-11T17:22:24.642Z,82.33
2022-10-11T17:24:53.833Z,85.02
2022-10-11T17:27:22.981Z,86.40
2022-10-11T17:29:52.571Z,89.47
2022-10-11T17:32:22.005Z,87.74
2022-10-11T17:34:51.150Z,86.43
2022-10-11T17:37:20.847Z,87.08
2022-10-11T17:39:51.660Z,89.72
2022-10-11T17:42:21.105Z,90.19
2022-10-11T17:44:50.307Z,93.04
2022-10-11T17:47:19.433Z,93.87
2022-10-11T17:49:48.931Z,95.97
2022-10-11T17:52:18.163Z,98.08
2022-10-11T17:54:49.653Z,98.88
2022-10-11T17:57:20.492Z,98.14
2022-10-11T17:59:50.056Z,100.00
2022-10-11T18:02:20.615Z,92.36
2022-10-11T18:04:49.741Z,92.90
2022-10-11T18:07:18.954Z,92.25
2022-10-11T18:09:47.914Z,94.14
2022-10-11T18:12:17.360Z,96.31
2022-10-11T18:14:48.342Z,96.34
2022-10-11T18:17:18.111Z,97.81
2022-10-11T18:19:47.533Z,98.57
2022-10-11T18:22:17.681Z,99.20
2022-10-11T18:24:47.932Z,99.65
2022-10-11T18:27:18.771Z,100.00
2022-10-11T18:29:50.416Z,100.00
2022-10-11T18:32:21.006Z,100.00
2022-10-11T18:34:50.679Z,100.00
2022-10-11T18:37:20.043Z,100.00
2022-10-11T18:39:49.524Z,100.00
2022-10-11T18:42:20.328Z,100.00
2022-10-11T18:44:50.883Z,100.00
2022-10-11T18:47:20.186Z,100.00
2022-10-11T18:49:49.410Z,100.00
2022-10-11T18:52:18.838Z,100.00
2022-10-11T18:54:48.127Z,100.00
2022-10-11T18:57:17.789Z,100.00
2022-10-11T18:59:47.335Z,100.00
2022-10-11T19:02:18.408Z,100.00
2022-10-11T19:04:52.480Z,100.00
2022-10-11T19:07:22.351Z,100.00
2022-10-11T19:09:51.469Z,100.00
2022-10-11T19:12:21.046Z,100.00
2022-10-11T19:14:50.275Z,100.00
2022-10-11T19:17:22.800Z,100.00
2022-10-11T19:19:52.563Z,100.00
2022-10-11T19:22:21.653Z,100.00
2022-10-11T19:24:51.011Z,100.00
2022-10-11T19:27:22.280Z,100.00
2022-10-11T19:29:51.321Z,100.00
2022-10-11T19:32:22.492Z,100.00
2022-10-11T19:34:52.663Z,100.00
2022-10-11T19:37:21.792Z,100.00
2022-10-11T19:39:51.043Z,100.00
2022-10-11T19:42:21.324Z,100.00
2022-10-11T19:44:50.486Z,100.00
2022-10-11T19:47:21.607Z,100.00
2022-10-11T19:49:50.749Z,100.00
2022-10-11T19:52:20.140Z,100.00
2022-10-11T19:54:49.302Z,100.00
2022-10-11T19:57:18.671Z,100.00
2022-10-11T19:59:47.871Z,100.00
2022-10-11T20:02:17.803Z,100.00
2022-10-11T20:04:53.169Z,100.00
2022-10-11T20:07:23.530Z,100.00
2022-10-11T20:09:52.646Z,100.00
2022-10-11T20:12:21.841Z,100.00
2022-10-11T20:14:51.283Z,100.00
2022-10-11T20:17:20.690Z,100.00
2022-10-11T20:19:52.782Z,100.00
2022-10-11T20:22:21.611Z,100.00
2022-10-11T20:24:50.744Z,100.00
2022-10-11T20:27:20.209Z,100.00
2022-10-11T20:29:50.127Z,100.00
2022-10-11T20:32:19.319Z,100.00
2022-10-11T20:34:49.885Z,100.00
2022-10-11T20:37:19.245Z,100.00
2022-10-11T20:39:48.454Z,100.00
2022-10-11T20:42:17.600Z,100.00
2022-10-11T20:44:48.274Z,100.00
2022-10-11T20:47:17.948Z,100.00
2022-10-11T20:49:47.149Z,100.00
2022-10-11T20:52:18.105Z,100.00
2022-10-11T20:54:47.956Z,100.00
2022-10-11T20:57:17.275Z,100.00
2022-10-11T20:59:46.183Z,100.00
2022-10-11T21:02:18.781Z,100.00
2022-10-11T21:04:49.910Z,100.00
2022-10-11T21:07:22.783Z,100.00
2022-10-11T21:09:52.041Z,100.00
2022-10-11T21:12:21.267Z,100.00
2022-10-11T21:14:50.622Z,100.00
2022-10-11T21:17:19.822Z,100.00
2022-10-11T21:19:49.309Z,100.00
2022-10-11T21:22:18.707Z,100.00
2022-10-11T21:24:49.428Z,100.00
2022-10-11T21:27:18.835Z,100.00
2022-10-11T21:29:48.323Z,100.00
2022-10-11T21:32:17.577Z,100.00
2022-10-11T21:34:47.321Z,100.00
2022-10-11T21:37:16.614Z,100.00
2022-10-11T21:39:46.174Z,100.00
2022-10-11T21:42:17.349Z,100.00
2022-10-11T21:44:46.919Z,100.00
2022-10-11T21:47:16.716Z,100.00
2022-10-11T21:49:46.286Z,100.00
2022-10-11T21:52:15.876Z,100.00
2022-10-11T21:54:45.356Z,100.00
2022-10-11T21:57:15.991Z,100.00
2022-10-11T21:59:45.374Z,100.00
2022-10-11T22:02:14.682Z,100.00
2022-10-11T22:04:44.062Z,100.00
2022-10-11T22:07:13.373Z,100.00
2022-10-11T22:09:42.709Z,100.00
2022-10-11T22:12:12.504Z,100.00
2022-10-11T22:14:43.210Z,100.00
2022-10-11T22:17:12.791Z,100.00
2022-10-11T22:19:42.468Z,100.00
2022-10-11T22:22:12.034Z,100.00
2022-10-11T22:24:41.279Z,100.00
2022-10-11T22:27:10.510Z,100.00
2022-10-11T22:29:39.854Z,100.00
2022-10-11T22:32:10.565Z,100.00
2022-10-11T22:34:39.771Z,100.00
2022-10-11T22:37:09.265Z,100.00
2022-10-11T22:39:38.524Z,100.00
2022-10-11T22:42:07.819Z,100.00
2022-10-11T22:44:37.055Z,100.00
2022-10-11T22:47:06.715Z,100.00
2022-10-11T22:49:37.543Z,100.00
2022-10-11T22:52:06.987Z,100.00
2022-10-11T22:54:36.554Z,100.00
2022-10-11T22:57:06.164Z,100.00
2022-10-11T22:59:35.592Z,100.00
2022-10-11T23:02:07.721Z,100.00
2022-10-11T23:04:38.467Z,100.00
2022-10-11T23:07:08.295Z,100.00
2022-10-11T23:09:37.533Z,100.00
2022-10-11T23:12:07.407Z,100.00
2022-10-11T23:14:36.699Z,100.00
2022-10-11T23:17:05.974Z,100.00
2022-10-11T23:19:36.957Z,100.00
2022-10-11T23:22:11.590Z,100.00
2022-10-11T23:24:40.897Z,100.00
2022-10-11T23:27:10.707Z,100.00
2022-10-11T23:29:41.073Z,100.00
2022-10-11T23:32:11.022Z,100.00
2022-10-11T23:34:40.373Z,100.00
2022-10-11T23:37:11.342Z,100.00
2022-10-11T23:39:40.658Z,100.00
2022-10-11T23:42:09.886Z,100.00
2022-10-11T23:44:40.326Z,100.00
2022-10-11T23:47:09.608Z,100.00
2022-10-11T23:49:38.815Z,100.00
2022-10-11T23:52:08.502Z,100.00
2022-10-11T23:54:39.509Z,100.00
2022-10-11T23:57:08.711Z,100.00
2022-10-11T23:59:38.053Z,100.00
